sensor_id;sensor_type;location;lat;lon;timestamp;P1;durP1;ratioP1;P2;durP2;ratioP2
15938;SDS011;8068;51.322;9.450;2022-12-07T00:01:34;6.80;;;6.40;;
15938;SDS011;8068;51.322;9.450;2022-12-07T00:04:03;7.87;;;7.20;;
15938;SDS011;8068;51.322;9.450;2022-12-07T00:06:43;9.30;;;6.87;;
15938;SDS011;8068;51.322;9.450;2022-12-07T00:09:11;8.17;;;7.07;;
15938;SDS011;8068;51.322;9.450;2022-12-07T00:11:40;6.47;;;5.97;;
15938;SDS011;8068;51.322;9.450;2022-12-07T00:14:11;7.60;;;6.90;;
15938;SDS011;8068;51.322;9.450;2022-12-07T00:16:41;7.83;;;7.33;;
15938;SDS011;8068;51.322;9.450;2022-12-07T00:19:13;7.63;;;7.03;;
15938;SDS011;8068;51.322;9.450;2022-12-07T00:21:42;7.43;;;6.50;;
15938;SDS011;8068;51.322;9.450;2022-12-07T00:24:15;8.10;;;7.30;;
15938;SDS011;8068;51.322;9.450;2022-12-07T00:26:46;7.53;;;7.03;;
15938;SDS011;8068;51.322;9.450;2022-12-07T00:29:17;8.40;;;7.70;;
15938;SDS011;8068;51.322;9.450;2022-12-07T00:31:46;8.00;;;6.90;;
15938;SDS011;8068;51.322;9.450;2022-12-07T00:34:17;9.60;;;8.70;;
15938;SDS011;8068;51.322;9.450;2022-12-07T00:36:45;9.60;;;8.70;;
15938;SDS011;8068;51.322;9.450;2022-12-07T00:39:15;8.73;;;7.93;;
15938;SDS011;8068;51.322;9.450;2022-12-07T00:41:49;8.70;;;7.90;;
15938;SDS011;8068;51.322;9.450;2022-12-07T00:44:20;8.27;;;7.60;;
15938;SDS011;8068;51.322;9.450;2022-12-07T00:46:50;8.63;;;7.90;;
15938;SDS011;8068;51.322;9.450;2022-12-07T00:49:21;8.37;;;7.70;;
15938;SDS011;8068;51.322;9.450;2022-12-07T00:51:51;9.40;;;7.20;;
15938;SDS011;8068;51.322;9.450;2022-12-07T00:54:21;8.87;;;7.97;;
15938;SDS011;8068;51.322;9.450;2022-12-07T00:56:51;10.20;;;7.20;;
15938;SDS011;8068;51.322;9.450;2022-12-07T00:59:28;8.40;;;7.70;;
15938;SDS011;8068;51.322;9.450;2022-12-07T01:01:58;11.37;;;8.07;;
15938;SDS011;8068;51.322;9.450;2022-12-07T01:04:28;8.87;;;8.13;;
15938;SDS011;8068;51.322;9.450;2022-12-07T01:06:58;9.47;;;8.27;;
15938;SDS011;8068;51.322;9.450;2022-12-07T01:09:28;9.57;;;8.67;;
15938;SDS011;8068;51.322;9.450;2022-12-07T01:11:58;9.87;;;8.83;;
15938;SDS011;8068;51.322;9.450;2022-12-07T01:14:29;10.07;;;9.13;;
15938;SDS011;8068;51.322;9.450;2022-12-07T01:17:03;10.30;;;9.30;;
15938;SDS011;8068;51.322;9.450;2022-12-07T01:19:32;11.17;;;9.33;;
15938;SDS011;8068;51.322;9.450;2022-12-07T01:22:02;10.13;;;8.97;;
15938;SDS011;8068;51.322;9.450;2022-12-07T01:24:32;12.63;;;9.80;;
15938;SDS011;8068;51.322;9.450;2022-12-07T01:27:03;8.83;;;8.07;;
15938;SDS011;8068;51.322;9.450;2022-12-07T01:29:33;10.53;;;9.50;;
15938;SDS011;8068;51.322;9.450;2022-12-07T01:32:03;10.57;;;9.27;;
15938;SDS011;8068;51.322;9.450;2022-12-07T01:34:37;9.83;;;8.77;;
15938;SDS011;8068;51.322;9.450;2022-12-07T01:37:07;13.83;;;10.00;;
15938;SDS011;8068;51.322;9.450;2022-12-07T01:39:36;11.00;;;9.83;;
15938;SDS011;8068;51.322;9.450;2022-12-07T01:42:10;12.60;;;9.27;;
15938;SDS011;8068;51.322;9.450;2022-12-07T01:47:41;10.60;;;9.50;;
15938;SDS011;8068;51.322;9.450;2022-12-07T01:50:13;10.33;;;9.33;;
15938;SDS011;8068;51.322;9.450;2022-12-07T01:52:42;10.73;;;9.60;;
15938;SDS011;8068;51.322;9.450;2022-12-07T01:55:10;10.23;;;9.17;;
15938;SDS011;8068;51.322;9.450;2022-12-07T01:57:48;11.13;;;9.97;;
15938;SDS011;8068;51.322;9.450;2022-12-07T02:00:20;10.97;;;9.87;;
15938;SDS011;8068;51.322;9.450;2022-12-07T02:02:47;13.00;;;10.57;;
15938;SDS011;8068;51.322;9.450;2022-12-07T02:05:26;11.83;;;10.63;;
15938;SDS011;8068;51.322;9.450;2022-12-07T02:07:57;12.00;;;10.37;;
15938;SDS011;8068;51.322;9.450;2022-12-07T02:10:25;12.57;;;10.70;;
15938;SDS011;8068;51.322;9.450;2022-12-07T02:12:54;17.57;;;10.90;;
15938;SDS011;8068;51.322;9.450;2022-12-07T02:15:33;17.50;;;11.07;;
15938;SDS011;8068;51.322;9.450;2022-12-07T02:18:08;11.30;;;10.20;;
15938;SDS011;8068;51.322;9.450;2022-12-07T02:20:47;15.77;;;11.70;;
15938;SDS011;8068;51.322;9.450;2022-12-07T02:23:31;12.87;;;9.30;;
15938;SDS011;8068;51.322;9.450;2022-12-07T02:29:07;15.07;;;11.40;;
15938;SDS011;8068;51.322;9.450;2022-12-07T02:31:56;12.47;;;10.17;;
15938;SDS011;8068;51.322;9.450;2022-12-07T02:34:44;13.90;;;10.47;;
15938;SDS011;8068;51.322;9.450;2022-12-07T02:43:14;11.70;;;10.50;;
15938;SDS011;8068;51.322;9.450;2022-12-07T02:45:45;11.00;;;9.87;;
15938;SDS011;8068;51.322;9.450;2022-12-07T02:48:20;11.47;;;10.03;;
15938;SDS011;8068;51.322;9.450;2022-12-07T02:50:51;13.30;;;10.87;;
15938;SDS011;8068;51.322;9.450;2022-12-07T02:53:32;10.63;;;9.53;;
15938;SDS011;8068;51.322;9.450;2022-12-07T03:13:45;7.53;;;7.00;;
15938;SDS011;8068;51.322;9.450;2022-12-07T03:16:37;8.50;;;7.80;;
15938;SDS011;8068;51.322;9.450;2022-12-07T03:19:13;8.60;;;7.90;;
15938;SDS011;8068;51.322;9.450;2022-12-07T03:21:49;8.87;;;8.10;;
15938;SDS011;8068;51.322;9.450;2022-12-07T03:24:27;7.87;;;7.27;;
15938;SDS011;8068;51.322;9.450;2022-12-07T03:30:10;7.40;;;6.80;;
15938;SDS011;8068;51.322;9.450;2022-12-07T03:32:44;8.03;;;7.23;;
15938;SDS011;8068;51.322;9.450;2022-12-07T03:35:18;7.27;;;6.87;;
15938;SDS011;8068;51.322;9.450;2022-12-07T03:40:37;4.90;;;4.70;;
15938;SDS011;8068;51.322;9.450;2022-12-07T03:43:08;4.80;;;4.57;;
15938;SDS011;8068;51.322;9.450;2022-12-07T03:45:39;3.73;;;3.63;;
15938;SDS011;8068;51.322;9.450;2022-12-07T03:48:17;3.73;;;3.63;;
15938;SDS011;8068;51.322;9.450;2022-12-07T03:51:01;3.63;;;3.53;;
15938;SDS011;8068;51.322;9.450;2022-12-07T03:53:46;4.20;;;3.90;;
15938;SDS011;8068;51.322;9.450;2022-12-07T03:56:39;6.53;;;6.00;;
15938;SDS011;8068;51.322;9.450;2022-12-07T03:59:11;5.77;;;5.43;;
15938;SDS011;8068;51.322;9.450;2022-12-07T04:01:43;6.27;;;5.40;;
15938;SDS011;8068;51.322;9.450;2022-12-07T04:04:18;7.00;;;6.60;;
15938;SDS011;8068;51.322;9.450;2022-12-07T04:06:48;7.23;;;6.77;;
15938;SDS011;8068;51.322;9.450;2022-12-07T04:09:19;7.30;;;6.90;;
15938;SDS011;8068;51.322;9.450;2022-12-07T04:11:58;7.77;;;7.30;;
15938;SDS011;8068;51.322;9.450;2022-12-07T04:14:28;9.23;;;8.43;;
15938;SDS011;8068;51.322;9.450;2022-12-07T04:16:59;7.80;;;7.30;;
15938;SDS011;8068;51.322;9.450;2022-12-07T04:19:30;8.97;;;8.17;;
15938;SDS011;8068;51.322;9.450;2022-12-07T04:22:00;9.20;;;8.50;;
15938;SDS011;8068;51.322;9.450;2022-12-07T04:24:29;9.33;;;8.37;;
15938;SDS011;8068;51.322;9.450;2022-12-07T04:27:00;8.67;;;8.07;;
15938;SDS011;8068;51.322;9.450;2022-12-07T04:29:33;8.77;;;8.07;;
15938;SDS011;8068;51.322;9.450;2022-12-07T04:32:03;8.80;;;7.97;;
15938;SDS011;8068;51.322;9.450;2022-12-07T04:34:33;10.60;;;8.87;;
15938;SDS011;8068;51.322;9.450;2022-12-07T04:37:03;10.73;;;8.30;;
15938;SDS011;8068;51.322;9.450;2022-12-07T04:39:33;9.57;;;8.73;;
15938;SDS011;8068;51.322;9.450;2022-12-07T04:42:03;8.50;;;7.70;;
15938;SDS011;8068;51.322;9.450;2022-12-07T04:44:33;9.37;;;8.40;;
15938;SDS011;8068;51.322;9.450;2022-12-07T04:47:09;9.83;;;8.87;;
15938;SDS011;8068;51.322;9.450;2022-12-07T04:49:39;9.20;;;8.30;;
15938;SDS011;8068;51.322;9.450;2022-12-07T04:52:10;9.20;;;7.40;;
15938;SDS011;8068;51.322;9.450;2022-12-07T04:54:41;9.17;;;8.37;;
15938;SDS011;8068;51.322;9.450;2022-12-07T04:57:12;8.07;;;7.30;;
15938;SDS011;8068;51.322;9.450;2022-12-07T04:59:41;8.40;;;7.50;;
15938;SDS011;8068;51.322;9.450;2022-12-07T05:02:12;13.63;;;11.00;;
15938;SDS011;8068;51.322;9.450;2022-12-07T05:04:44;8.60;;;7.80;;
15938;SDS011;8068;51.322;9.450;2022-12-07T05:07:15;7.57;;;7.07;;
15938;SDS011;8068;51.322;9.450;2022-12-07T05:09:46;9.33;;;8.40;;
15938;SDS011;8068;51.322;9.450;2022-12-07T05:12:19;10.03;;;8.03;;
15938;SDS011;8068;51.322;9.450;2022-12-07T05:14:50;11.53;;;7.33;;
15938;SDS011;8068;51.322;9.450;2022-12-07T05:17:21;11.73;;;6.87;;
15938;SDS011;8068;51.322;9.450;2022-12-07T05:19:50;7.00;;;6.50;;
15938;SDS011;8068;51.322;9.450;2022-12-07T05:22:21;11.23;;;7.20;;
15938;SDS011;8068;51.322;9.450;2022-12-07T05:24:51;13.37;;;7.97;;
15938;SDS011;8068;51.322;9.450;2022-12-07T05:27:21;8.97;;;8.07;;
15938;SDS011;8068;51.322;9.450;2022-12-07T05:29:54;11.07;;;8.50;;
15938;SDS011;8068;51.322;9.450;2022-12-07T05:32:25;8.13;;;7.30;;
15938;SDS011;8068;51.322;9.450;2022-12-07T05:34:55;8.93;;;6.63;;
15938;SDS011;8068;51.322;9.450;2022-12-07T05:37:25;9.97;;;7.03;;
15938;SDS011;8068;51.322;9.450;2022-12-07T05:39:55;12.93;;;7.57;;
15938;SDS011;8068;51.322;9.450;2022-12-07T05:42:25;10.37;;;7.77;;
15938;SDS011;8068;51.322;9.450;2022-12-07T05:44:56;8.10;;;7.40;;
15938;SDS011;8068;51.322;9.450;2022-12-07T05:47:29;8.00;;;7.00;;
15938;SDS011;8068;51.322;9.450;2022-12-07T05:50:00;7.00;;;6.50;;
15938;SDS011;8068;51.322;9.450;2022-12-07T05:52:30;9.03;;;6.50;;
15938;SDS011;8068;51.322;9.450;2022-12-07T05:55:00;12.53;;;7.10;;
15938;SDS011;8068;51.322;9.450;2022-12-07T05:57:30;6.80;;;6.40;;
15938;SDS011;8068;51.322;9.450;2022-12-07T06:00:00;8.17;;;7.43;;
15938;SDS011;8068;51.322;9.450;2022-12-07T06:02:30;13.93;;;8.00;;
15938;SDS011;8068;51.322;9.450;2022-12-07T06:05:04;9.37;;;6.30;;
15938;SDS011;8068;51.322;9.450;2022-12-07T06:07:34;9.57;;;6.17;;
15938;SDS011;8068;51.322;9.450;2022-12-07T06:10:04;9.13;;;7.10;;
15938;SDS011;8068;51.322;9.450;2022-12-07T06:12:34;8.40;;;7.60;;
15938;SDS011;8068;51.322;9.450;2022-12-07T06:15:05;8.40;;;6.40;;
15938;SDS011;8068;51.322;9.450;2022-12-07T06:17:35;6.33;;;5.73;;
15938;SDS011;8068;51.322;9.450;2022-12-07T06:20:06;8.00;;;6.07;;
15938;SDS011;8068;51.322;9.450;2022-12-07T06:22:40;7.70;;;6.53;;
15938;SDS011;8068;51.322;9.450;2022-12-07T06:25:10;6.47;;;5.33;;
15938;SDS011;8068;51.322;9.450;2022-12-07T06:27:41;11.43;;;6.70;;
15938;SDS011;8068;51.322;9.450;2022-12-07T06:30:11;6.37;;;5.63;;
15938;SDS011;8068;51.322;9.450;2022-12-07T06:32:41;9.57;;;6.10;;
15938;SDS011;8068;51.322;9.450;2022-12-07T06:35:11;6.30;;;5.73;;
15938;SDS011;8068;51.322;9.450;2022-12-07T06:37:42;7.63;;;5.13;;
15938;SDS011;8068;51.322;9.450;2022-12-07T06:40:15;6.47;;;4.93;;
15938;SDS011;8068;51.322;9.450;2022-12-07T06:42:45;5.83;;;4.93;;
15938;SDS011;8068;51.322;9.450;2022-12-07T06:45:16;5.20;;;4.87;;
15938;SDS011;8068;51.322;9.450;2022-12-07T06:47:46;6.53;;;4.73;;
15938;SDS011;8068;51.322;9.450;2022-12-07T06:50:16;4.57;;;4.17;;
15938;SDS011;8068;51.322;9.450;2022-12-07T06:52:46;9.27;;;4.50;;
15938;SDS011;8068;51.322;9.450;2022-12-07T06:55:16;5.93;;;4.87;;
15938;SDS011;8068;51.322;9.450;2022-12-07T06:57:50;4.40;;;4.07;;
15938;SDS011;8068;51.322;9.450;2022-12-07T07:00:20;5.77;;;4.37;;
15938;SDS011;8068;51.322;9.450;2022-12-07T07:02:50;5.73;;;3.70;;
15938;SDS011;8068;51.322;9.450;2022-12-07T07:05:20;8.30;;;4.20;;
15938;SDS011;8068;51.322;9.450;2022-12-07T07:07:50;9.17;;;4.70;;
15938;SDS011;8068;51.322;9.450;2022-12-07T07:10:37;5.50;;;3.60;;
15938;SDS011;8068;51.322;9.450;2022-12-07T07:13:03;6.50;;;4.10;;
15938;SDS011;8068;51.322;9.450;2022-12-07T07:15:31;5.23;;;4.50;;
15938;SDS011;8068;51.322;9.450;2022-12-07T07:17:58;4.23;;;3.83;;
15938;SDS011;8068;51.322;9.450;2022-12-07T07:20:32;4.67;;;3.90;;
15938;SDS011;8068;51.322;9.450;2022-12-07T07:23:08;4.73;;;4.33;;
15938;SDS011;8068;51.322;9.450;2022-12-07T07:25:34;10.87;;;4.73;;
15938;SDS011;8068;51.322;9.450;2022-12-07T07:28:00;8.13;;;4.87;;
15938;SDS011;8068;51.322;9.450;2022-12-07T07:30:27;4.80;;;4.60;;
15938;SDS011;8068;51.322;9.450;2022-12-07T07:33:03;8.07;;;4.87;;
15938;SDS011;8068;51.322;9.450;2022-12-07T07:35:32;5.27;;;4.87;;
15938;SDS011;8068;51.322;9.450;2022-12-07T07:38:02;5.40;;;4.90;;
15938;SDS011;8068;51.322;9.450;2022-12-07T07:40:33;5.93;;;4.63;;
15938;SDS011;8068;51.322;9.450;2022-12-07T07:43:02;5.87;;;4.00;;
15938;SDS011;8068;51.322;9.450;2022-12-07T07:45:31;11.43;;;5.27;;
15938;SDS011;8068;51.322;9.450;2022-12-07T07:48:01;32.13;;;16.50;;
15938;SDS011;8068;51.322;9.450;2022-12-07T07:50:35;14.67;;;8.10;;
15938;SDS011;8068;51.322;9.450;2022-12-07T07:53:05;8.70;;;6.23;;
15938;SDS011;8068;51.322;9.450;2022-12-07T07:55:35;4.63;;;4.03;;
15938;SDS011;8068;51.322;9.450;2022-12-07T07:58:06;6.80;;;4.43;;
15938;SDS011;8068;51.322;9.450;2022-12-07T08:00:36;6.10;;;3.50;;
15938;SDS011;8068;51.322;9.450;2022-12-07T08:03:07;4.50;;;4.10;;
15938;SDS011;8068;51.322;9.450;2022-12-07T08:05:37;4.60;;;3.97;;
15938;SDS011;8068;51.322;9.450;2022-12-07T08:08:13;4.70;;;4.37;;
15938;SDS011;8068;51.322;9.450;2022-12-07T08:10:44;3.23;;;3.13;;
15938;SDS011;8068;51.322;9.450;2022-12-07T08:13:15;3.43;;;3.13;;
15938;SDS011;8068;51.322;9.450;2022-12-07T08:15:50;3.40;;;3.13;;
15938;SDS011;8068;51.322;9.450;2022-12-07T08:18:21;4.13;;;3.73;;
15938;SDS011;8068;51.322;9.450;2022-12-07T08:20:51;4.33;;;3.43;;
15938;SDS011;8068;51.322;9.450;2022-12-07T08:23:21;3.13;;;2.93;;
15938;SDS011;8068;51.322;9.450;2022-12-07T08:26:01;3.80;;;3.50;;
15938;SDS011;8068;51.322;9.450;2022-12-07T08:28:28;3.17;;;3.00;;
15938;SDS011;8068;51.322;9.450;2022-12-07T08:30:59;2.67;;;2.40;;
15938;SDS011;8068;51.322;9.450;2022-12-07T08:33:31;3.73;;;3.53;;
15938;SDS011;8068;51.322;9.450;2022-12-07T08:36:01;4.03;;;3.83;;
15938;SDS011;8068;51.322;9.450;2022-12-07T08:38:29;5.23;;;4.80;;
15938;SDS011;8068;51.322;9.450;2022-12-07T08:40:59;8.30;;;7.47;;
15938;SDS011;8068;51.322;9.450;2022-12-07T08:43:30;6.40;;;5.90;;
15938;SDS011;8068;51.322;9.450;2022-12-07T08:48:30;4.60;;;4.20;;
15938;SDS011;8068;51.322;9.450;2022-12-07T08:51:05;5.07;;;4.57;;
15938;SDS011;8068;51.322;9.450;2022-12-07T08:53:34;4.03;;;3.83;;
15938;SDS011;8068;51.322;9.450;2022-12-07T08:56:05;4.10;;;3.80;;
15938;SDS011;8068;51.322;9.450;2022-12-07T08:58:35;4.73;;;3.93;;
15938;SDS011;8068;51.322;9.450;2022-12-07T09:01:06;5.20;;;2.90;;
15938;SDS011;8068;51.322;9.450;2022-12-07T09:03:36;3.63;;;3.00;;
15938;SDS011;8068;51.322;9.450;2022-12-07T09:06:06;3.70;;;3.50;;
15938;SDS011;8068;51.322;9.450;2022-12-07T09:08:43;4.30;;;3.33;;
15938;SDS011;8068;51.322;9.450;2022-12-07T09:11:15;3.83;;;3.47;;
15938;SDS011;8068;51.322;9.450;2022-12-07T09:13:42;4.97;;;3.17;;
15938;SDS011;8068;51.322;9.450;2022-12-07T09:16:12;3.33;;;3.03;;
15938;SDS011;8068;51.322;9.450;2022-12-07T09:18:43;3.87;;;3.47;;
15938;SDS011;8068;51.322;9.450;2022-12-07T09:21:14;7.23;;;3.40;;
15938;SDS011;8068;51.322;9.450;2022-12-07T09:23:45;3.00;;;2.80;;
15938;SDS011;8068;51.322;9.450;2022-12-07T09:26:25;9.77;;;3.17;;
15938;SDS011;8068;51.322;9.450;2022-12-07T09:28:54;3.77;;;3.47;;
15938;SDS011;8068;51.322;9.450;2022-12-07T09:31:25;4.10;;;3.80;;
15938;SDS011;8068;51.322;9.450;2022-12-07T09:34:00;3.73;;;3.43;;
15938;SDS011;8068;51.322;9.450;2022-12-07T09:36:31;7.43;;;3.50;;
15938;SDS011;8068;51.322;9.450;2022-12-07T09:39:01;6.50;;;4.87;;
15938;SDS011;8068;51.322;9.450;2022-12-07T09:41:39;5.17;;;3.30;;
15938;SDS011;8068;51.322;9.450;2022-12-07T09:44:09;7.40;;;3.50;;
15938;SDS011;8068;51.322;9.450;2022-12-07T09:46:41;2.90;;;2.60;;
15938;SDS011;8068;51.322;9.450;2022-12-07T09:49:11;6.17;;;3.00;;
15938;SDS011;8068;51.322;9.450;2022-12-07T09:51:38;4.37;;;3.13;;
15938;SDS011;8068;51.322;9.450;2022-12-07T09:54:07;4.83;;;3.00;;
15938;SDS011;8068;51.322;9.450;2022-12-07T09:56:38;3.20;;;3.00;;
15938;SDS011;8068;51.322;9.450;2022-12-07T09:59:16;8.57;;;3.50;;
15938;SDS011;8068;51.322;9.450;2022-12-07T10:01:44;5.93;;;3.00;;
15938;SDS011;8068;51.322;9.450;2022-12-07T10:04:16;5.47;;;2.73;;
15938;SDS011;8068;51.322;9.450;2022-12-07T10:06:45;2.67;;;2.37;;
15938;SDS011;8068;51.322;9.450;2022-12-07T10:09:15;2.90;;;2.40;;
15938;SDS011;8068;51.322;9.450;2022-12-07T10:14:53;5.47;;;2.63;;
15938;SDS011;8068;51.322;9.450;2022-12-07T10:17:47;2.83;;;2.63;;
15938;SDS011;8068;51.322;9.450;2022-12-07T10:20:26;2.43;;;2.17;;
15938;SDS011;8068;51.322;9.450;2022-12-07T10:23:01;3.00;;;2.13;;
15938;SDS011;8068;51.322;9.450;2022-12-07T10:25:37;5.53;;;2.10;;
15938;SDS011;8068;51.322;9.450;2022-12-07T10:28:11;3.77;;;2.10;;
15938;SDS011;8068;51.322;9.450;2022-12-07T10:33:37;1.93;;;1.73;;
15938;SDS011;8068;51.322;9.450;2022-12-07T10:36:16;3.87;;;1.70;;
15938;SDS011;8068;51.322;9.450;2022-12-07T10:39:00;1.67;;;1.53;;
15938;SDS011;8068;51.322;9.450;2022-12-07T10:41:31;7.53;;;4.87;;
15938;SDS011;8068;51.322;9.450;2022-12-07T10:44:02;6.10;;;5.60;;
15938;SDS011;8068;51.322;9.450;2022-12-07T10:46:57;3.27;;;2.77;;
15938;SDS011;8068;51.322;9.450;2022-12-07T10:53:00;2.27;;;2.07;;
15938;SDS011;8068;51.322;9.450;2022-12-07T11:18:58;2.37;;;2.17;;
15938;SDS011;8068;51.322;9.450;2022-12-07T11:22:04;4.90;;;2.87;;
15938;SDS011;8068;51.322;9.450;2022-12-07T11:31:23;2.63;;;1.57;;
15938;SDS011;8068;51.322;9.450;2022-12-07T11:38:58;3.00;;;1.70;;
15938;SDS011;8068;51.322;9.450;2022-12-07T11:41:37;2.13;;;1.50;;
15938;SDS011;8068;51.322;9.450;2022-12-07T11:47:10;4.67;;;1.57;;
15938;SDS011;8068;51.322;9.450;2022-12-07T11:52:28;3.90;;;1.50;;
15938;SDS011;8068;51.322;9.450;2022-12-07T11:55:00;3.17;;;1.47;;
15938;SDS011;8068;51.322;9.450;2022-12-07T11:57:37;6.83;;;1.30;;
15938;SDS011;8068;51.322;9.450;2022-12-07T12:00:14;3.00;;;1.53;;
15938;SDS011;8068;51.322;9.450;2022-12-07T12:03:03;4.50;;;2.40;;
15938;SDS011;8068;51.322;9.450;2022-12-07T12:05:38;5.00;;;2.63;;
15938;SDS011;8068;51.322;9.450;2022-12-07T12:08:13;2.43;;;1.50;;
15938;SDS011;8068;51.322;9.450;2022-12-07T12:20:28;1.80;;;1.70;;
15938;SDS011;8068;51.322;9.450;2022-12-07T12:23:05;2.20;;;1.70;;
15938;SDS011;8068;51.322;9.450;2022-12-07T12:25:41;3.00;;;1.77;;
15938;SDS011;8068;51.322;9.450;2022-12-07T12:28:27;3.20;;;1.83;;
15938;SDS011;8068;51.322;9.450;2022-12-07T12:31:09;4.07;;;1.73;;
15938;SDS011;8068;51.322;9.450;2022-12-07T12:33:49;1.97;;;1.60;;
15938;SDS011;8068;51.322;9.450;2022-12-07T12:36:26;2.37;;;1.73;;
15938;SDS011;8068;51.322;9.450;2022-12-07T12:39:15;7.40;;;1.70;;
15938;SDS011;8068;51.322;9.450;2022-12-07T12:46:53;4.70;;;2.03;;
15938;SDS011;8068;51.322;9.450;2022-12-07T12:54:29;5.23;;;2.10;;
15938;SDS011;8068;51.322;9.450;2022-12-07T13:05:21;1.30;;;1.20;;
15938;SDS011;8068;51.322;9.450;2022-12-07T13:08:01;3.73;;;1.53;;
15938;SDS011;8068;51.322;9.450;2022-12-07T13:10:42;1.70;;;1.60;;
15938;SDS011;8068;51.322;9.450;2022-12-07T13:28:48;3.30;;;1.80;;
15938;SDS011;8068;51.322;9.450;2022-12-07T13:34:38;2.67;;;1.80;;
15938;SDS011;8068;51.322;9.450;2022-12-07T13:39:53;6.50;;;1.43;;
15938;SDS011;8068;51.322;9.450;2022-12-07T13:42:27;4.50;;;2.40;;
15938;SDS011;8068;51.322;9.450;2022-12-07T13:45:13;6.07;;;2.67;;
15938;SDS011;8068;51.322;9.450;2022-12-07T13:47:54;7.90;;;2.23;;
15938;SDS011;8068;51.322;9.450;2022-12-07T13:50:28;2.90;;;2.10;;
15938;SDS011;8068;51.322;9.450;2022-12-07T13:53:00;5.03;;;2.40;;
15938;SDS011;8068;51.322;9.450;2022-12-07T13:55:31;2.00;;;1.90;;
15938;SDS011;8068;51.322;9.450;2022-12-07T13:58:02;2.33;;;2.23;;
15938;SDS011;8068;51.322;9.450;2022-12-07T14:00:33;4.43;;;2.47;;
15938;SDS011;8068;51.322;9.450;2022-12-07T14:03:04;3.70;;;2.30;;
15938;SDS011;8068;51.322;9.450;2022-12-07T14:08:36;4.90;;;3.97;;
15938;SDS011;8068;51.322;9.450;2022-12-07T14:11:16;5.37;;;3.50;;
15938;SDS011;8068;51.322;9.450;2022-12-07T14:13:58;5.53;;;3.23;;
15938;SDS011;8068;51.322;9.450;2022-12-07T14:19:00;5.20;;;2.63;;
15938;SDS011;8068;51.322;9.450;2022-12-07T14:21:33;3.27;;;3.00;;
15938;SDS011;8068;51.322;9.450;2022-12-07T14:24:17;3.40;;;3.00;;
15938;SDS011;8068;51.322;9.450;2022-12-07T14:26:49;4.53;;;2.90;;
15938;SDS011;8068;51.322;9.450;2022-12-07T14:31:52;5.93;;;2.90;;
15938;SDS011;8068;51.322;9.450;2022-12-07T14:34:24;10.50;;;3.00;;
15938;SDS011;8068;51.322;9.450;2022-12-07T14:36:53;3.27;;;2.97;;
15938;SDS011;8068;51.322;9.450;2022-12-07T14:39:24;3.27;;;2.97;;
15938;SDS011;8068;51.322;9.450;2022-12-07T14:42:00;4.33;;;2.93;;
15938;SDS011;8068;51.322;9.450;2022-12-07T14:44:30;7.23;;;3.47;;
15938;SDS011;8068;51.322;9.450;2022-12-07T14:47:01;3.10;;;2.90;;
15938;SDS011;8068;51.322;9.450;2022-12-07T14:49:52;4.43;;;2.30;;
15938;SDS011;8068;51.322;9.450;2022-12-07T14:52:23;7.03;;;2.30;;
15938;SDS011;8068;51.322;9.450;2022-12-07T14:55:35;2.83;;;2.43;;
15938;SDS011;8068;51.322;9.450;2022-12-07T14:58:05;2.97;;;2.77;;
15938;SDS011;8068;51.322;9.450;2022-12-07T15:00:32;9.20;;;2.90;;
15938;SDS011;8068;51.322;9.450;2022-12-07T15:03:04;8.07;;;2.70;;
15938;SDS011;8068;51.322;9.450;2022-12-07T15:05:34;13.40;;;3.60;;
15938;SDS011;8068;51.322;9.450;2022-12-07T15:08:04;4.20;;;2.63;;
15938;SDS011;8068;51.322;9.450;2022-12-07T15:10:38;3.90;;;2.77;;
15938;SDS011;8068;51.322;9.450;2022-12-07T15:13:10;4.57;;;3.47;;
15938;SDS011;8068;51.322;9.450;2022-12-07T15:16:04;4.77;;;2.70;;
15938;SDS011;8068;51.322;9.450;2022-12-07T15:18:35;4.37;;;4.00;;
15938;SDS011;8068;51.322;9.450;2022-12-07T15:21:09;2.70;;;2.43;;
15938;SDS011;8068;51.322;9.450;2022-12-07T15:23:48;8.00;;;3.03;;
15938;SDS011;8068;51.322;9.450;2022-12-07T15:26:18;4.60;;;3.97;;
15938;SDS011;8068;51.322;9.450;2022-12-07T15:28:49;9.07;;;3.77;;
15938;SDS011;8068;51.322;9.450;2022-12-07T15:31:20;6.67;;;3.63;;
15938;SDS011;8068;51.322;9.450;2022-12-07T15:34:10;11.87;;;7.50;;
15938;SDS011;8068;51.322;9.450;2022-12-07T15:36:40;5.83;;;3.43;;
15938;SDS011;8068;51.322;9.450;2022-12-07T15:39:14;14.00;;;9.63;;
15938;SDS011;8068;51.322;9.450;2022-12-07T15:41:45;5.73;;;5.30;;
15938;SDS011;8068;51.322;9.450;2022-12-07T15:44:15;4.37;;;3.77;;
15938;SDS011;8068;51.322;9.450;2022-12-07T15:47:00;5.10;;;3.83;;
15938;SDS011;8068;51.322;9.450;2022-12-07T15:49:27;3.93;;;3.70;;
15938;SDS011;8068;51.322;9.450;2022-12-07T15:51:56;5.63;;;4.20;;
15938;SDS011;8068;51.322;9.450;2022-12-07T15:54:27;12.40;;;4.80;;
15938;SDS011;8068;51.322;9.450;2022-12-07T15:56:58;11.43;;;3.87;;
15938;SDS011;8068;51.322;9.450;2022-12-07T15:59:28;4.37;;;3.50;;
15938;SDS011;8068;51.322;9.450;2022-12-07T16:01:58;4.10;;;3.90;;
15938;SDS011;8068;51.322;9.450;2022-12-07T16:04:31;6.30;;;4.13;;
15938;SDS011;8068;51.322;9.450;2022-12-07T16:07:01;3.80;;;3.50;;
15938;SDS011;8068;51.322;9.450;2022-12-07T16:09:32;4.70;;;3.90;;
15938;SDS011;8068;51.322;9.450;2022-12-07T16:12:02;5.13;;;4.47;;
15938;SDS011;8068;51.322;9.450;2022-12-07T16:14:32;4.50;;;3.70;;
15938;SDS011;8068;51.322;9.450;2022-12-07T16:17:01;5.93;;;4.07;;
15938;SDS011;8068;51.322;9.450;2022-12-07T16:19:32;3.70;;;3.43;;
15938;SDS011;8068;51.322;9.450;2022-12-07T16:22:05;9.63;;;4.73;;
15938;SDS011;8068;51.322;9.450;2022-12-07T16:24:35;3.93;;;3.63;;
15938;SDS011;8068;51.322;9.450;2022-12-07T16:27:05;5.13;;;4.60;;
15938;SDS011;8068;51.322;9.450;2022-12-07T16:29:35;5.00;;;4.40;;
15938;SDS011;8068;51.322;9.450;2022-12-07T16:32:07;7.67;;;4.57;;
15938;SDS011;8068;51.322;9.450;2022-12-07T16:34:37;3.80;;;3.50;;
15938;SDS011;8068;51.322;9.450;2022-12-07T16:37:07;10.10;;;4.70;;
15938;SDS011;8068;51.322;9.450;2022-12-07T16:39:39;12.93;;;4.50;;
15938;SDS011;8068;51.322;9.450;2022-12-07T16:42:09;5.63;;;4.53;;
15938;SDS011;8068;51.322;9.450;2022-12-07T16:44:39;6.70;;;4.07;;
15938;SDS011;8068;51.322;9.450;2022-12-07T16:47:10;13.40;;;5.30;;
15938;SDS011;8068;51.322;9.450;2022-12-07T16:49:40;10.60;;;5.53;;
15938;SDS011;8068;51.322;9.450;2022-12-07T16:52:11;9.90;;;4.93;;
15938;SDS011;8068;51.322;9.450;2022-12-07T16:54:49;13.63;;;5.50;;
15938;SDS011;8068;51.322;9.450;2022-12-07T16:57:16;5.40;;;4.60;;
15938;SDS011;8068;51.322;9.450;2022-12-07T16:59:48;4.93;;;4.43;;
15938;SDS011;8068;51.322;9.450;2022-12-07T17:02:15;4.23;;;3.83;;
15938;SDS011;8068;51.322;9.450;2022-12-07T17:04:46;3.50;;;3.30;;
15938;SDS011;8068;51.322;9.450;2022-12-07T17:07:16;8.67;;;3.50;;
15938;SDS011;8068;51.322;9.450;2022-12-07T17:09:47;5.07;;;4.00;;
15938;SDS011;8068;51.322;9.450;2022-12-07T17:12:17;10.77;;;4.20;;
15938;SDS011;8068;51.322;9.450;2022-12-07T17:14:48;8.70;;;5.20;;
15938;SDS011;8068;51.322;9.450;2022-12-07T17:17:33;9.00;;;4.70;;
15938;SDS011;8068;51.322;9.450;2022-12-07T17:19:59;7.57;;;4.60;;
15938;SDS011;8068;51.322;9.450;2022-12-07T17:22:31;8.33;;;4.83;;
15938;SDS011;8068;51.322;9.450;2022-12-07T17:24:57;7.23;;;5.70;;
15938;SDS011;8068;51.322;9.450;2022-12-07T17:27:23;5.87;;;5.07;;
15938;SDS011;8068;51.322;9.450;2022-12-07T17:29:50;7.80;;;4.70;;
15938;SDS011;8068;51.322;9.450;2022-12-07T17:32:24;6.37;;;4.50;;
15938;SDS011;8068;51.322;9.450;2022-12-07T17:34:54;7.43;;;5.10;;
15938;SDS011;8068;51.322;9.450;2022-12-07T17:37:25;7.20;;;5.77;;
15938;SDS011;8068;51.322;9.450;2022-12-07T17:39:55;8.73;;;5.70;;
15938;SDS011;8068;51.322;9.450;2022-12-07T17:42:25;5.20;;;4.70;;
15938;SDS011;8068;51.322;9.450;2022-12-07T17:45:11;5.03;;;4.70;;
15938;SDS011;8068;51.322;9.450;2022-12-07T17:47:37;6.03;;;4.83;;
15938;SDS011;8068;51.322;9.450;2022-12-07T17:50:04;7.20;;;4.50;;
15938;SDS011;8068;51.322;9.450;2022-12-07T17:52:33;9.43;;;5.37;;
15938;SDS011;8068;51.322;9.450;2022-12-07T17:55:18;5.53;;;4.90;;
15938;SDS011;8068;51.322;9.450;2022-12-07T17:57:48;7.07;;;4.30;;